Eden, Maryland
Current Conditions -  °F | °C
As of 2:54 AM on Sunday 21 Dec 2014 (Local Time) from KSBY Reporting Station
Haze Haze  
Wind Chill: 30°   Ceiling: 8000
Heat Index: 30°   Visibility: 6mi
Dew Point: 25°   Wind: 0mph
Humidity: 82%   Direction: NA
Pressure: 30.3"   Gusts: NA
Location:  38.28°N, 75.65°W
Report Text: KSBY 210754Z AUTO 00000KT 6SM HZ OVC080 M01/M04 A3030 RMK AO2 SLP263 T10111039
Loading
Personal Weather Stations






























Interactive Weather Map New forecast layout! Learn more

10-Day Weather Forecast

Advertisements
Track Severe Weather on mobile